Time;durP1;ratioP1;P1;durP2;ratioP2;P2;SDS_P1;SDS_P2;PMS_P1;PMS_P2;Temp;Humidity;BMP_temperature;BMP_pressure;BME280_temperature;BME280_humidity;BME280_pressure;Samples;Min_cycle;Max_cycle;Signal;HPM_P1;HPM_P2
2022/04/11 00:01:31;;;;;;;12.00;2.80;;;6.30;97.30;;;;;;5052441;28;20017;-74
2022/04/11 00:03:56;;;;;;;3.25;1.88;;;6.40;97.30;;;;;;5051651;28;20033;-75
2022/04/11 00:06:22;;;;;;;5.55;2.38;;;6.30;97.20;;;;;;5050777;28;20029;-75
2022/04/11 00:08:48;;;;;;;3.58;2.15;;;6.30;97.10;;;;;;5051980;28;20052;-75
2022/04/11 00:11:13;;;;;;;7.63;2.80;;;6.30;97.00;;;;;;5051641;28;20032;-75
2022/04/11 00:13:39;;;;;;;6.95;2.00;;;6.20;97.10;;;;;;5050986;28;20385;-74
2022/04/11 00:16:07;;;;;;;3.78;2.47;;;6.20;97.20;;;;;;5050585;28;20033;-74
2022/04/11 00:18:34;;;;;;;5.43;2.40;;;6.20;97.00;;;;;;5051639;28;20064;-74
2022/04/11 00:20:59;;;;;;;7.60;2.55;;;6.20;97.10;;;;;;5051751;28;20037;-75
2022/04/11 00:23:25;;;;;;;5.10;2.40;;;6.10;97.10;;;;;;5051832;28;20032;-75
2022/04/11 00:25:51;;;;;;;3.78;2.20;;;6.00;97.10;;;;;;5051439;28;20025;-75
2022/04/11 00:28:16;;;;;;;7.30;2.13;;;6.10;97.10;;;;;;5051755;28;20668;-75
2022/04/11 00:30:42;;;;;;;7.78;1.90;;;6.00;97.00;;;;;;5051733;28;20025;-75
2022/04/11 00:33:08;;;;;;;5.75;2.20;;;6.10;97.00;;;;;;5051256;28;20033;-75
2022/04/11 00:35:33;;;;;;;5.40;2.47;;;6.10;96.90;;;;;;5049954;28;20053;-74
2022/04/11 00:37:59;;;;;;;5.55;2.33;;;6.10;96.90;;;;;;5050116;28;20047;-74
2022/04/11 00:40:25;;;;;;;4.75;2.33;;;6.00;96.80;;;;;;5051687;28;20106;-75
2022/04/11 00:42:50;;;;;;;7.05;2.08;;;6.00;96.70;;;;;;5039451;28;20486;-75
2022/04/11 00:45:16;;;;;;;6.53;2.38;;;6.00;96.70;;;;;;5031092;28;20462;-75
2022/04/11 00:47:42;;;;;;;6.28;2.25;;;5.90;96.70;;;;;;5031110;28;20061;-74
2022/04/11 00:50:09;;;;;;;6.30;2.17;;;5.90;96.70;;;;;;5031242;28;20466;-74
2022/04/11 00:52:42;;;;;;;7.75;2.67;;;5.80;96.90;;;;;;5031659;28;20061;-76
2022/04/11 00:55:08;;;;;;;7.22;2.38;;;5.80;97.00;;;;;;5031178;28;20124;-75
2022/04/11 00:57:34;;;;;;;7.03;2.40;;;5.70;97.20;;;;;;5029990;28;20561;-76
2022/04/11 01:00:01;;;;;;;7.10;2.58;;;5.80;97.30;;;;;;5029829;28;20037;-75
2022/04/11 01:02:26;;;;;;;3.97;2.25;;;5.70;97.20;;;;;;5030441;28;20042;-76
2022/04/11 01:04:52;;;;;;;3.47;2.03;;;5.70;97.30;;;;;;5030861;28;20032;-75
2022/04/11 01:07:19;;;;;;;7.35;2.63;;;5.60;97.20;;;;;;5030312;28;20116;-76
2022/04/11 01:09:45;;;;;;;3.92;2.22;;;5.50;97.40;;;;;;5031149;28;20091;-74
2022/04/11 01:12:13;;;;;;;9.40;2.55;;;5.50;97.50;;;;;;5030067;28;20029;-76
2022/04/11 01:14:38;;;;;;;5.00;2.10;;;5.40;97.50;;;;;;5030780;28;20066;-75
2022/04/11 01:17:04;;;;;;;6.45;2.25;;;5.40;97.40;;;;;;5030694;28;20087;-75
2022/04/11 01:19:30;;;;;;;5.90;2.58;;;5.30;97.40;;;;;;5046696;28;20041;-74
2022/04/11 01:21:55;;;;;;;4.40;2.50;;;5.20;97.50;;;;;;5030748;28;20533;-75
2022/04/11 01:24:22;;;;;;;6.85;2.78;;;5.30;97.60;;;;;;5030743;28;20026;-73
2022/04/11 01:26:49;;;;;;;7.57;2.53;;;5.20;97.60;;;;;;5030583;28;20037;-76
2022/04/11 01:29:16;;;;;;;4.15;2.28;;;5.20;97.70;;;;;;5030697;28;20128;-74
2022/04/11 01:31:42;;;;;;;6.13;2.83;;;5.10;97.60;;;;;;5030832;28;20443;-74
2022/04/11 01:34:08;;;;;;;7.00;2.65;;;5.10;97.60;;;;;;5029852;28;20091;-74
2022/04/11 01:36:33;;;;;;;4.85;2.53;;;5.20;97.60;;;;;;5044352;28;20049;-75
2022/04/11 01:38:59;;;;;;;9.10;2.60;;;5.20;97.40;;;;;;5049633;28;20339;-74
2022/04/11 01:41:25;;;;;;;6.00;2.58;;;5.20;97.50;;;;;;5050753;28;20029;-75
2022/04/11 01:43:50;;;;;;;5.25;2.70;;;5.20;97.20;;;;;;5050666;28;20115;-74
2022/04/11 01:46:16;;;;;;;6.40;2.60;;;5.20;97.50;;;;;;5050808;28;20087;-74
2022/04/11 01:48:42;;;;;;;9.27;2.90;;;5.20;97.40;;;;;;5050445;28;20033;-74
2022/04/11 01:51:07;;;;;;;5.05;2.38;;;5.20;97.40;;;;;;5050394;28;20022;-75
2022/04/11 01:53:33;;;;;;;5.88;1.88;;;5.20;97.50;;;;;;5050486;28;20039;-73
2022/04/11 01:55:58;;;;;;;6.47;2.45;;;5.20;97.50;;;;;;5050249;28;20382;-74
2022/04/11 01:58:24;;;;;;;5.40;2.38;;;5.20;97.40;;;;;;5050758;28;20022;-75
2022/04/11 02:00:50;;;;;;;5.07;2.40;;;5.20;97.50;;;;;;5050293;28;20671;-76
2022/04/11 02:03:16;;;;;;;3.42;2.20;;;5.10;97.50;;;;;;5049118;28;20025;-77
2022/04/11 02:05:42;;;;;;;7.45;2.47;;;5.10;97.40;;;;;;5050329;28;20025;-76
2022/04/11 02:08:10;;;;;;;5.97;2.35;;;5.20;97.40;;;;;;5050042;28;20603;-76
2022/04/11 02:10:37;;;;;;;7.15;2.95;;;5.10;97.30;;;;;;5050659;28;20409;-75
2022/04/11 02:13:03;;;;;;;7.75;2.45;;;5.20;97.40;;;;;;5050483;28;20049;-74
2022/04/11 02:15:29;;;;;;;4.15;2.13;;;5.10;97.20;;;;;;5052111;28;20485;-75
2022/04/11 02:17:54;;;;;;;4.28;1.98;;;5.10;97.20;;;;;;5053820;28;20119;-74
2022/04/11 02:20:20;;;;;;;8.65;2.75;;;5.20;97.30;;;;;;5053653;28;20035;-75
2022/04/11 02:22:58;;;;;;;4.00;2.00;;;5.10;97.10;;;;;;5053759;28;20032;-75
2022/04/11 02:25:26;;;;;;;4.15;1.95;;;5.00;97.20;;;;;;5054108;28;20028;-76
2022/04/11 02:27:54;;;;;;;3.40;1.95;;;5.10;97.30;;;;;;5053525;28;20055;-75
2022/04/11 02:30:22;;;;;;;3.67;2.08;;;5.10;97.00;;;;;;5053688;28;20032;-75
2022/04/11 02:32:48;;;;;;;6.00;2.38;;;5.20;97.10;;;;;;5053777;28;20033;-76
2022/04/11 02:35:14;;;;;;;5.38;2.20;;;5.10;96.90;;;;;;5053273;28;20435;-74
2022/04/11 02:37:40;;;;;;;5.25;2.63;;;5.10;97.00;;;;;;5054058;28;20060;-75
2022/04/11 02:40:07;;;;;;;4.15;1.75;;;5.10;97.10;;;;;;5053518;28;20044;-73
2022/04/11 02:42:33;;;;;;;4.70;2.08;;;5.10;97.00;;;;;;5053459;28;20047;-73
2022/04/11 02:44:59;;;;;;;8.68;2.20;;;5.30;97.30;;;;;;5053663;28;20064;-74
2022/04/11 02:47:25;;;;;;;6.30;2.20;;;5.20;97.10;;;;;;5053368;28;20658;-75
2022/04/11 02:49:50;;;;;;;4.97;2.13;;;5.20;97.10;;;;;;5053321;28;20092;-74
2022/04/11 02:52:16;;;;;;;3.45;2.15;;;5.20;97.20;;;;;;5052794;28;20317;-74
2022/04/11 02:54:42;;;;;;;5.00;1.98;;;5.10;97.10;;;;;;5053225;28;20084;-74
2022/04/11 02:57:08;;;;;;;3.75;2.08;;;5.10;97.30;;;;;;5053073;28;20036;-74
2022/04/11 02:59:35;;;;;;;5.15;2.20;;;5.10;97.30;;;;;;5053085;28;20125;-74
2022/04/11 03:02:01;;;;;;;4.57;2.17;;;5.10;97.30;;;;;;5053087;28;20120;-75
2022/04/11 03:04:27;;;;;;;7.38;2.25;;;5.20;97.10;;;;;;5053452;28;20025;-75
2022/04/11 03:06:53;;;;;;;4.72;2.20;;;5.20;97.10;;;;;;5053148;28;20300;-75
2022/04/11 03:09:19;;;;;;;9.20;2.22;;;5.30;97.10;;;;;;5052198;28;20474;-75
2022/04/11 03:11:45;;;;;;;6.25;1.90;;;5.30;97.10;;;;;;5052824;28;20040;-75
2022/04/11 03:14:10;;;;;;;4.55;2.25;;;5.30;97.00;;;;;;5052837;28;20533;-73
2022/04/11 03:16:36;;;;;;;5.80;2.03;;;5.30;97.00;;;;;;5053176;28;20112;-75
2022/04/11 03:19:03;;;;;;;9.15;2.20;;;5.40;97.10;;;;;;5052751;28;20060;-75
2022/04/11 03:21:28;;;;;;;5.47;2.10;;;5.40;96.90;;;;;;5051638;28;20040;-75
2022/04/11 03:23:54;;;;;;;3.60;1.73;;;5.40;96.80;;;;;;5052766;28;20063;-75
2022/04/11 03:26:19;;;;;;;4.53;2.20;;;5.50;96.70;;;;;;5051759;28;20025;-73
2022/04/11 03:28:45;;;;;;;5.78;2.40;;;5.50;96.60;;;;;;5052329;28;20020;-74
2022/04/11 03:31:11;;;;;;;8.93;2.10;;;5.60;96.50;;;;;;5052817;28;20439;-74
2022/04/11 03:33:37;;;;;;;4.20;1.90;;;5.60;96.30;;;;;;5052501;28;20037;-74
2022/04/11 03:36:05;;;;;;;8.80;2.30;;;5.60;96.20;;;;;;5052227;28;20041;-74
2022/04/11 03:38:31;;;;;;;5.13;2.08;;;5.60;96.20;;;;;;5051392;28;20116;-75
2022/04/11 03:40:57;;;;;;;4.20;2.22;;;5.60;96.10;;;;;;5052351;28;20100;-75
2022/04/11 03:43:22;;;;;;;8.50;2.38;;;5.70;96.10;;;;;;5052802;28;20017;-74
2022/04/11 03:45:48;;;;;;;6.00;2.35;;;5.70;96.20;;;;;;5052278;28;20506;-73
2022/04/11 03:48:13;;;;;;;6.03;2.03;;;5.70;96.00;;;;;;5051073;28;20123;-74
2022/04/11 03:50:39;;;;;;;6.90;1.90;;;5.80;96.10;;;;;;5052229;28;20426;-73
2022/04/11 03:53:05;;;;;;;3.97;1.48;;;5.80;96.00;;;;;;5052349;28;20242;-74
2022/04/11 03:55:31;;;;;;;4.78;1.98;;;5.80;95.80;;;;;;5052819;28;20454;-75
2022/04/11 03:57:57;;;;;;;3.20;2.15;;;5.90;95.80;;;;;;5052155;28;20029;-75
2022/04/11 04:00:23;;;;;;;5.72;1.73;;;5.80;95.80;;;;;;5050963;28;20040;-74
2022/04/11 04:02:49;;;;;;;6.35;2.22;;;5.80;95.80;;;;;;5051921;28;20112;-75
2022/04/11 04:05:16;;;;;;;5.63;2.50;;;5.90;95.90;;;;;;5051824;28;20036;-74
2022/04/11 04:07:42;;;;;;;5.45;1.70;;;5.90;95.60;;;;;;5051644;28;20123;-73
2022/04/11 04:10:08;;;;;;;5.20;2.35;;;5.80;95.50;;;;;;5051246;28;20426;-75
2022/04/11 04:12:34;;;;;;;5.63;2.20;;;5.80;95.50;;;;;;5051778;28;20029;-74
2022/04/11 04:15:00;;;;;;;3.00;1.90;;;5.90;95.40;;;;;;5050576;28;20048;-74
2022/04/11 04:17:26;;;;;;;5.30;2.35;;;5.80;95.40;;;;;;5051875;28;20022;-76
2022/04/11 04:19:51;;;;;;;5.32;1.80;;;5.90;95.30;;;;;;5051497;28;20037;-76
2022/04/11 04:22:17;;;;;;;5.28;1.70;;;5.80;95.30;;;;;;5051889;28;20044;-75
2022/04/11 04:24:43;;;;;;;5.50;2.25;;;5.80;95.30;;;;;;5051493;28;20029;-75
2022/04/11 04:27:11;;;;;;;6.18;1.95;;;5.80;95.40;;;;;;5051328;28;20534;-75
2022/04/11 04:29:37;;;;;;;4.43;1.95;;;5.80;95.30;;;;;;5050261;28;20082;-73
2022/04/11 04:32:02;;;;;;;8.18;2.30;;;5.80;95.30;;;;;;5051232;28;20025;-74
2022/04/11 04:34:31;;;;;;;7.53;1.90;;;5.80;95.20;;;;;;5051503;28;20529;-74
2022/04/11 04:36:58;;;;;;;4.70;1.77;;;5.90;95.20;;;;;;5050859;28;20106;-75
2022/04/11 04:39:24;;;;;;;4.93;2.08;;;6.00;95.20;;;;;;5049578;28;20036;-76
2022/04/11 04:41:49;;;;;;;6.70;2.30;;;5.80;95.10;;;;;;5050910;28;20025;-75
2022/04/11 04:44:15;;;;;;;7.78;2.55;;;5.90;95.10;;;;;;5050935;28;20037;-75
2022/04/11 04:46:40;;;;;;;6.68;2.03;;;5.90;95.10;;;;;;5051380;28;20430;-75
2022/04/11 04:49:06;;;;;;;7.00;2.42;;;5.90;95.10;;;;;;5050170;28;20025;-76
2022/04/11 04:51:31;;;;;;;4.78;2.13;;;5.80;95.10;;;;;;5051007;28;20055;-75
2022/04/11 04:53:57;;;;;;;9.25;2.05;;;5.80;95.20;;;;;;5050852;28;20033;-75
2022/04/11 04:56:22;;;;;;;4.30;2.00;;;5.90;95.50;;;;;;5051050;28;20086;-75
2022/04/11 04:58:49;;;;;;;5.13;1.90;;;5.90;95.00;;;;;;5050808;28;20141;-75
2022/04/11 05:01:15;;;;;;;4.50;1.77;;;5.90;95.00;;;;;;5051320;28;20017;-75
2022/04/11 05:03:41;;;;;;;5.90;2.15;;;5.90;95.00;;;;;;5050861;28;20028;-73
2022/04/11 05:06:07;;;;;;;6.13;1.83;;;6.00;94.90;;;;;;5050763;28;20477;-75
2022/04/11 05:08:34;;;;;;;4.97;2.13;;;6.00;94.80;;;;;;5050815;28;20030;-74
2022/04/11 05:11:00;;;;;;;7.25;2.50;;;6.00;94.80;;;;;;5050819;28;20032;-74
2022/04/11 05:13:25;;;;;;;6.60;2.17;;;6.00;94.90;;;;;;5050071;28;20025;-74
2022/04/11 05:15:51;;;;;;;7.25;2.50;;;6.00;94.90;;;;;;5050524;28;20086;-74
2022/04/11 05:18:17;;;;;;;5.28;2.15;;;6.10;94.80;;;;;;5050608;28;20040;-74
2022/04/11 05:20:43;;;;;;;6.30;2.25;;;6.10;94.80;;;;;;5050655;28;20111;-74
2022/04/11 05:23:09;;;;;;;9.85;2.10;;;6.10;94.70;;;;;;5050650;28;20033;-74
2022/04/11 05:25:34;;;;;;;10.13;2.40;;;6.10;94.60;;;;;;5051049;28;20041;-75
2022/04/11 05:28:00;;;;;;;3.95;1.90;;;6.10;94.40;;;;;;5050468;28;20079;-75
2022/04/11 05:30:26;;;;;;;9.63;2.35;;;6.10;94.50;;;;;;5050455;28;20511;-75
2022/04/11 05:32:51;;;;;;;5.20;2.00;;;6.20;94.50;;;;;;5050527;28;20021;-74
2022/04/11 05:35:17;;;;;;;4.05;2.05;;;6.20;94.40;;;;;;5050232;28;20091;-74
2022/04/11 05:37:42;;;;;;;5.05;1.88;;;6.30;94.30;;;;;;5050387;28;20047;-74
2022/04/11 05:40:11;;;;;;;7.53;2.25;;;6.30;94.20;;;;;;5050910;28;20045;-77
2022/04/11 05:42:37;;;;;;;;;;;6.40;94.20;;;;;;5050656;28;20046;-72
2022/04/11 05:45:04;;;;;;;5.93;2.15;;;6.40;94.00;;;;;;5050399;28;19909;-75
2022/04/11 05:47:30;;;;;;;5.40;2.05;;;6.40;93.90;;;;;;5050316;28;20029;-72
2022/04/11 05:49:55;;;;;;;7.05;2.20;;;6.40;93.80;;;;;;5052553;28;20036;-75
2022/04/11 05:52:21;;;;;;;6.97;2.70;;;6.50;93.80;;;;;;5053518;28;20063;-74
2022/04/11 05:54:47;;;;;;;5.82;1.98;;;6.40;93.80;;;;;;5054124;28;20133;-73
2022/04/11 05:57:13;;;;;;;5.10;2.08;;;6.50;94.00;;;;;;5054215;28;20033;-72
2022/04/11 05:59:39;;;;;;;2.60;1.75;;;6.60;93.90;;;;;;5054238;28;20025;-73
2022/04/11 06:02:05;;;;;;;5.95;1.98;;;6.60;93.80;;;;;;5052703;28;20036;-73
2022/04/11 06:04:31;;;;;;;6.25;2.13;;;6.70;94.00;;;;;;5054247;28;20025;-73
2022/04/11 06:06:57;;;;;;;4.13;2.15;;;6.80;94.10;;;;;;5053930;28;20416;-73
2022/04/11 06:09:25;;;;;;;5.43;2.33;;;6.80;94.10;;;;;;5053931;28;20033;-72
2022/04/11 06:11:51;;;;;;;5.57;2.20;;;6.90;94.00;;;;;;5053883;28;20443;-71
2022/04/11 06:14:17;;;;;;;2.83;1.77;;;6.90;93.70;;;;;;5053829;28;20545;-73
2022/04/11 06:16:42;;;;;;;4.47;1.90;;;7.10;93.90;;;;;;5052851;28;20035;-74
2022/04/11 06:19:08;;;;;;;6.88;2.45;;;7.10;93.60;;;;;;5053586;28;20051;-76
2022/04/11 06:21:33;;;;;;;5.93;2.30;;;7.10;93.10;;;;;;5053674;28;20029;-75
2022/04/11 06:23:59;;;;;;;8.10;2.92;;;7.10;93.00;;;;;;5052729;28;20132;-75
2022/04/11 06:26:24;;;;;;;7.45;2.42;;;7.30;93.60;;;;;;5053680;28;20565;-75
2022/04/11 06:28:50;;;;;;;6.00;1.98;;;7.30;93.00;;;;;;5053566;28;20025;-74
2022/04/11 06:31:16;;;;;;;5.13;2.30;;;7.30;92.70;;;;;;5052779;28;20623;-73
2022/04/11 06:33:42;;;;;;;3.42;2.13;;;7.30;92.90;;;;;;5052013;28;20362;-77
2022/04/11 06:36:08;;;;;;;5.05;2.33;;;7.30;92.70;;;;;;5053213;28;20041;-75
2022/04/11 06:38:34;;;;;;;5.00;2.85;;;7.40;92.30;;;;;;5053478;28;20029;-74
2022/04/11 06:40:59;;;;;;;4.80;2.33;;;7.40;92.20;;;;;;5053316;28;20013;-73
2022/04/11 06:43:25;;;;;;;6.80;3.28;;;7.40;92.20;;;;;;5053639;28;20044;-71
2022/04/11 06:45:51;;;;;;;7.68;3.60;;;7.50;92.10;;;;;;5053282;28;20029;-72
2022/04/11 06:48:17;;;;;;;7.00;2.53;;;7.60;91.80;;;;;;5053046;28;20040;-72
2022/04/11 06:50:45;;;;;;;7.70;2.67;;;7.60;92.10;;;;;;5053128;28;20562;-72
2022/04/11 06:53:13;;;;;;;4.65;2.25;;;7.70;92.00;;;;;;5053119;28;20458;-73
2022/04/11 06:55:39;;;;;;;2.78;1.95;;;7.80;91.50;;;;;;5053278;28;20045;-72
2022/04/11 06:58:05;;;;;;;6.50;1.90;;;7.90;91.10;;;;;;5052742;28;20144;-71
2022/04/11 07:00:30;;;;;;;7.20;2.30;;;8.00;90.90;;;;;;5051954;28;20029;-72
2022/04/11 07:02:56;;;;;;;4.57;2.22;;;8.00;90.80;;;;;;5051772;28;20029;-72
2022/04/11 07:05:21;;;;;;;5.63;2.33;;;8.10;90.60;;;;;;5052935;28;20379;-72
2022/04/11 07:07:47;;;;;;;5.90;2.20;;;8.30;91.00;;;;;;5051680;28;20048;-76
2022/04/11 07:10:12;;;;;;;8.02;2.42;;;8.40;90.80;;;;;;5037213;28;20028;-72
2022/04/11 07:12:39;;;;;;;5.82;1.90;;;8.40;90.10;;;;;;5048266;28;20175;-74
2022/04/11 07:15:09;;;;;;;11.77;2.40;;;8.40;89.80;;;;;;5032705;28;20037;-73
2022/04/11 07:17:35;;;;;;;7.63;2.25;;;8.50;90.00;;;;;;5032720;28;20037;-75
2022/04/11 07:20:01;;;;;;;7.80;2.20;;;8.60;90.00;;;;;;5032432;28;20691;-75
2022/04/11 07:22:27;;;;;;;7.40;2.17;;;8.70;89.80;;;;;;5032889;28;20131;-75
2022/04/11 07:24:53;;;;;;;5.57;2.00;;;8.80;89.00;;;;;;5032391;28;20052;-75
2022/04/11 07:27:18;;;;;;;7.53;3.00;;;8.80;88.60;;;;;;5031224;28;20033;-74
2022/04/11 07:29:44;;;;;;;6.15;2.58;;;8.90;87.80;;;;;;5031282;28;20530;-72
2022/04/11 07:32:10;;;;;;;6.68;2.65;;;9.00;86.90;;;;;;5032204;28;20033;-74
2022/04/11 07:34:36;;;;;;;2.92;2.03;;;9.10;86.30;;;;;;5031456;28;20021;-78
2022/04/11 07:37:01;;;;;;;7.68;2.00;;;9.20;85.50;;;;;;5031987;28;20081;-75
2022/04/11 07:39:29;;;;;;;3.80;1.70;;;9.20;85.60;;;;;;5032231;28;20040;-74
2022/04/11 07:41:54;;;;;;;5.82;1.75;;;9.30;85.60;;;;;;5032084;28;20056;-75
2022/04/11 07:44:20;;;;;;;11.45;2.58;;;9.40;86.10;;;;;;5030975;28;20033;-79
2022/04/11 07:46:46;;;;;;;5.88;2.10;;;9.50;84.50;;;;;;5030991;28;20032;-75
2022/04/11 07:49:11;;;;;;;4.97;2.10;;;9.60;84.80;;;;;;5032262;28;20410;-75
2022/04/11 07:51:37;;;;;;;6.57;2.30;;;9.70;84.20;;;;;;5031507;28;20025;-73
2022/04/11 07:54:03;;;;;;;7.07;2.42;;;9.70;83.50;;;;;;5031592;28;20034;-74
2022/04/11 07:56:29;;;;;;;7.68;1.92;;;9.80;83.00;;;;;;5031664;28;20132;-74
2022/04/11 07:58:55;;;;;;;6.93;2.30;;;10.00;81.70;;;;;;5031916;28;20474;-75
2022/04/11 08:01:21;;;;;;;11.48;2.58;;;10.00;80.40;;;;;;5032402;28;20026;-76
2022/04/11 08:03:47;;;;;;;3.70;1.73;;;10.10;79.30;;;;;;5031932;28;20091;-75
2022/04/11 08:06:14;;;;;;;7.30;2.50;;;10.30;79.20;;;;;;5031712;28;20030;-73
2022/04/11 08:08:47;;;;;;;4.80;1.88;;;10.30;78.50;;;;;;5031601;28;20319;-78
2022/04/11 08:11:17;;;;;;;5.65;1.65;;;10.60;78.90;;;;;;5032025;28;20055;-74
2022/04/11 08:13:43;;;;;;;4.80;2.10;;;11.60;76.50;;;;;;5031595;28;20025;-76
2022/04/11 08:16:10;;;;;;;10.18;2.90;;;12.70;73.20;;;;;;5031006;28;20028;-75
2022/04/11 08:18:35;;;;;;;5.00;2.42;;;13.70;72.40;;;;;;5031859;28;20063;-74
2022/04/11 08:21:18;;;;;;;8.85;2.20;;;15.10;68.20;;;;;;5031174;28;20109;-75
2022/04/11 08:23:44;;;;;;;5.53;2.33;;;16.20;63.40;;;;;;5031115;28;20029;-75
2022/04/11 08:26:09;;;;;;;5.75;2.30;;;17.20;60.10;;;;;;5031060;28;20036;-77
2022/04/11 08:28:35;;;;;;;8.40;2.58;;;18.40;60.60;;;;;;5031619;28;20025;-72
2022/04/11 08:31:01;;;;;;;8.23;2.25;;;18.90;55.30;;;;;;5046394;28;20026;-76
2022/04/11 08:33:30;;;;;;;4.47;2.50;;;19.40;52.50;;;;;;5047073;28;20026;-75
2022/04/11 08:35:55;;;;;;;6.20;2.17;;;20.10;53.70;;;;;;5031443;28;20049;-77
2022/04/11 08:38:21;;;;;;;8.13;2.38;;;20.80;51.60;;;;;;5029972;28;20021;-80
2022/04/11 08:40:46;;;;;;;4.65;2.15;;;21.30;49.70;;;;;;5046610;28;20176;-81
2022/04/11 08:43:13;;;;;;;5.40;1.80;;;21.70;46.20;;;;;;5031638;28;20036;-81
2022/04/11 08:45:39;;;;;;;9.15;1.73;;;21.60;44.50;;;;;;5046250;28;20142;-77
2022/04/11 08:48:05;;;;;;;5.97;1.92;;;21.80;43.70;;;;;;5029978;28;20486;-73
2022/04/11 08:50:31;;;;;;;2.88;1.50;;;21.50;45.70;;;;;;5030615;28;20040;-74
2022/04/11 08:52:57;;;;;;;9.65;2.10;;;22.30;43.80;;;;;;5030625;28;20100;-74
2022/04/11 08:55:23;;;;;;;3.85;1.45;;;23.10;42.20;;;;;;5031200;28;20017;-75
2022/04/11 08:57:49;;;;;;;6.03;2.03;;;24.00;40.30;;;;;;5030870;28;20036;-73
2022/04/11 09:00:22;;;;;;;6.13;1.83;;;23.90;38.60;;;;;;5030869;28;20025;-73
2022/04/11 09:02:48;;;;;;;3.58;1.50;;;23.40;37.50;;;;;;5030732;28;20035;-74
2022/04/11 09:05:20;;;;;;;4.13;1.55;;;24.00;36.90;;;;;;5030899;28;20030;-74
2022/04/11 09:07:57;;;;;;;2.63;1.40;;;23.20;36.00;;;;;;5030668;28;20391;-76
2022/04/11 09:10:25;;;;;;;3.88;1.60;;;23.70;36.70;;;;;;5030971;28;20386;-76
2022/04/11 09:12:55;;;;;;;4.32;1.55;;;22.80;36.30;;;;;;5030743;28;20032;-73
2022/04/11 09:15:23;;;;;;;4.38;1.63;;;22.50;37.40;;;;;;5030352;28;20037;-75
2022/04/11 09:17:49;;;;;;;4.35;2.00;;;22.60;37.80;;;;;;5030591;28;20038;-74
2022/04/11 09:20:18;;;;;;;7.13;1.83;;;21.90;36.90;;;;;;5030550;28;20359;-72
2022/04/11 09:22:44;;;;;;;5.72;1.90;;;21.00;37.30;;;;;;5030470;28;20561;-75
2022/04/11 09:25:13;;;;;;;3.72;1.90;;;19.90;37.70;;;;;;5033831;28;20036;-76
2022/04/11 09:27:39;;;;;;;4.25;2.25;;;19.80;37.70;;;;;;5034231;28;20132;-75
2022/04/11 09:30:19;;;;;;;8.02;2.60;;;19.90;38.80;;;;;;5033574;28;20030;-74
2022/04/11 09:32:58;;;;;;;6.10;2.65;;;19.20;38.40;;;;;;5034592;28;20265;-75
2022/04/11 09:35:29;;;;;;;11.07;2.72;;;19.30;39.30;;;;;;5025560;28;20141;-76
2022/04/11 09:38:09;;;;;;;16.40;2.92;;;18.80;38.80;;;;;;5033442;28;20083;-81
2022/04/11 09:40:58;;;;;;;5.35;2.00;;;19.10;39.80;;;;;;5035208;28;20093;-77
2022/04/11 09:43:27;;;;;;;8.10;3.15;;;19.00;39.90;;;;;;5014109;28;20045;-75
2022/04/11 09:45:54;;;;;;;6.35;2.40;;;19.50;40.00;;;;;;5031653;28;20057;-74
2022/04/11 09:48:28;;;;;;;9.60;3.30;;;19.80;39.40;;;;;;5034285;28;20038;-74
2022/04/11 09:50:55;;;;;;;5.43;2.53;;;19.50;39.20;;;;;;5034144;28;20516;-74
2022/04/11 09:53:33;;;;;;;4.72;2.90;;;19.30;40.30;;;;;;5034148;28;20439;-75
2022/04/11 09:56:06;;;;;;;7.50;3.03;;;19.40;39.70;;;;;;5034122;28;20021;-78
2022/04/11 09:58:34;;;;;;;6.65;3.15;;;19.90;40.30;;;;;;5034587;28;20075;-77
2022/04/11 10:01:02;;;;;;;6.82;2.97;;;20.00;38.80;;;;;;5034276;28;20033;-78
2022/04/11 10:03:29;;;;;;;5.47;2.72;;;20.50;39.40;;;;;;5049515;28;20025;-77
2022/04/11 10:05:56;;;;;;;8.40;3.08;;;20.70;38.60;;;;;;5034252;28;20120;-78
2022/04/11 10:08:26;;;;;;;7.15;3.70;;;21.80;38.60;;;;;;5033860;28;20033;-79
2022/04/11 10:10:54;;;;;;;14.00;3.40;;;22.00;38.80;;;;;;5033852;28;20087;-74
2022/04/11 10:13:19;;;;;;;5.78;3.13;;;22.00;36.80;;;;;;5034292;28;20049;-75
2022/04/11 10:15:47;;;;;;;7.57;3.65;;;22.10;37.20;;;;;;5033753;28;20034;-73
2022/04/11 10:18:23;;;;;;;8.05;3.42;;;22.30;37.10;;;;;;5033789;28;20033;-78
2022/04/11 10:20:58;;;;;;;6.15;3.90;;;23.20;37.20;;;;;;5033880;28;20037;-80
2022/04/11 10:23:29;;;;;;;9.55;4.15;;;23.60;36.10;;;;;;5033906;28;20034;-82
2022/04/11 10:25:58;;;;;;;12.48;4.07;;;24.20;35.40;;;;;;5033764;28;20033;-79
2022/04/11 10:28:28;;;;;;;7.50;3.83;;;25.50;34.20;;;;;;5034269;28;20537;-78
2022/04/11 10:31:14;;;;;;;5.70;3.35;;;24.20;33.30;;;;;;5033815;28;20038;-76
2022/04/11 10:33:46;;;;;;;6.35;3.95;;;25.60;33.70;;;;;;5032523;28;20046;-74
2022/04/11 10:36:31;;;;;;;10.02;4.35;;;25.50;32.40;;;;;;5032339;28;20148;-73
2022/04/11 10:39:15;;;;;;;9.55;4.20;;;24.60;32.20;;;;;;5028897;28;20033;-75
2022/04/11 10:41:56;;;;;;;8.45;4.22;;;25.70;34.00;;;;;;5021540;28;20026;-72
2022/04/11 10:44:32;;;;;;;7.03;4.18;;;25.70;32.20;;;;;;5033277;28;20057;-76
2022/04/11 10:47:12;;;;;;;9.48;4.55;;;25.10;32.80;;;;;;5025864;28;20029;-81
2022/04/11 10:49:50;;;;;;;8.18;4.25;;;25.80;32.10;;;;;;5033750;28;20092;-74
2022/04/11 10:52:33;;;;;;;9.63;4.40;;;24.30;31.00;;;;;;5033314;28;20141;-74
2022/04/11 10:55:15;;;;;;;9.63;4.35;;;25.40;32.80;;;;;;5033353;28;20029;-74
2022/04/11 10:57:47;;;;;;;8.90;4.80;;;25.20;31.00;;;;;;5033091;28;20032;-77
2022/04/11 11:00:19;;;;;;;9.85;5.13;;;26.00;31.30;;;;;;5033209;28;20056;-75
2022/04/11 11:02:57;;;;;;;9.65;4.22;;;25.60;31.30;;;;;;5032984;28;20026;-74
2022/04/11 11:05:45;;;;;;;8.38;4.63;;;23.70;30.40;;;;;;5033307;28;20080;-75
2022/04/11 11:08:14;;;;;;;14.10;4.15;;;23.80;31.50;;;;;;5032726;28;20454;-76
2022/04/11 11:10:49;;;;;;;6.93;3.75;;;23.70;32.00;;;;;;5033148;28;20021;-75
2022/04/11 11:13:50;;;;;;;10.65;3.63;;;23.30;32.20;;;;;;5033115;28;20042;-77
2022/04/11 11:16:17;;;;;;;5.65;3.53;;;23.20;33.00;;;;;;5028098;28;20525;-75
2022/04/11 11:18:46;;;;;;;9.90;4.47;;;23.40;33.20;;;;;;5032963;28;20375;-73
2022/04/11 11:21:13;;;;;;;7.13;4.10;;;22.50;32.70;;;;;;5032626;28;20259;-78
2022/04/11 11:23:38;;;;;;;6.45;3.45;;;22.10;33.70;;;;;;5048271;28;20036;-73
2022/04/11 11:26:12;;;;;;;8.30;3.92;;;22.00;34.60;;;;;;5032864;28;20037;-72
2022/04/11 11:28:41;;;;;;;7.93;3.47;;;21.80;35.00;;;;;;5032977;28;20317;-72
2022/04/11 11:31:06;;;;;;;8.50;3.80;;;20.70;35.50;;;;;;5032732;28;20047;-74
2022/04/11 11:33:32;;;;;;;5.20;3.25;;;20.40;35.80;;;;;;5031199;28;20120;-75
2022/04/11 11:35:58;;;;;;;9.80;4.22;;;20.10;35.30;;;;;;5032171;28;20077;-75
2022/04/11 11:38:31;;;;;;;7.22;3.88;;;20.10;35.80;;;;;;5032164;28;20535;-74
2022/04/11 11:41:05;;;;;;;9.15;4.60;;;19.90;36.00;;;;;;5032412;28;20029;-74
2022/04/11 11:43:31;;;;;;;6.47;3.92;;;19.70;36.10;;;;;;5032676;28;20036;-74
2022/04/11 11:46:02;;;;;;;8.10;3.92;;;19.50;36.60;;;;;;5047916;28;20463;-75
2022/04/11 11:48:33;;;;;;;5.25;3.47;;;19.40;36.70;;;;;;5031906;28;20083;-75
2022/04/11 11:51:01;;;;;;;9.18;4.03;;;19.10;36.50;;;;;;5031952;28;20494;-74
2022/04/11 11:53:50;;;;;;;10.98;5.07;;;18.90;36.30;;;;;;5031944;28;20025;-73
2022/04/11 11:56:17;;;;;;;6.22;3.45;;;18.90;36.80;;;;;;5030981;28;20297;-77
2022/04/11 11:58:43;;;;;;;11.70;4.18;;;18.80;36.50;;;;;;5031743;28;20026;-73
2022/04/11 12:01:13;;;;;;;6.40;3.65;;;18.80;36.70;;;;;;5032308;28;20082;-75
2022/04/11 12:06:31;;;;;;;8.90;2.90;;;18.60;37.50;;;;;;5031797;28;20029;-75
2022/04/11 12:09:04;;;;;;;10.82;5.15;;;18.60;38.00;;;;;;5031881;28;20029;-78
2022/04/11 12:11:31;;;;;;;24.70;13.27;;;18.50;38.30;;;;;;5047591;28;20025;-74
2022/04/11 12:14:09;;;;;;;9.52;4.22;;;18.50;39.30;;;;;;5031915;28;20479;-80
2022/04/11 12:16:55;;;;;;;12.98;4.63;;;18.70;39.20;;;;;;5032580;28;20030;-74
2022/04/11 12:19:35;;;;;;;10.00;4.45;;;18.70;38.60;;;;;;5031650;28;20033;-75
2022/04/11 12:22:15;;;;;;;8.27;4.20;;;17.90;38.00;;;;;;5031424;28;20319;-77
2022/04/11 12:24:41;;;;;;;11.25;4.20;;;17.90;38.50;;;;;;5031655;28;20531;-73
2022/04/11 12:27:13;;;;;;;11.65;4.43;;;17.90;38.40;;;;;;5031429;28;20052;-74
2022/04/11 12:29:42;;;;;;;11.07;4.50;;;17.80;38.90;;;;;;5031444;28;20029;-74
2022/04/11 12:32:15;;;;;;;7.22;3.72;;;17.80;39.20;;;;;;5031403;28;20408;-74
2022/04/11 12:34:45;;;;;;;11.00;3.70;;;17.80;38.80;;;;;;5030913;28;20021;-74
2022/04/11 12:37:12;;;;;;;11.15;4.20;;;17.70;38.80;;;;;;5031832;28;20048;-78
2022/04/11 12:39:50;;;;;;;11.43;4.10;;;17.60;38.70;;;;;;5030279;28;20045;-75
2022/04/11 12:42:23;;;;;;;;;;;17.70;39.20;;;;;;5031692;28;20032;-75
2022/04/11 12:44:59;;;;;;;6.28;3.28;;;17.60;38.70;;;;;;5030851;28;19955;-76
2022/04/11 12:47:25;;;;;;;8.30;3.70;;;17.60;38.90;;;;;;5031132;28;20037;-73
2022/04/11 12:49:53;;;;;;;6.53;3.45;;;17.60;39.10;;;;;;5030982;28;20036;-75
2022/04/11 12:52:21;;;;;;;6.25;3.80;;;17.60;40.00;;;;;;5031655;28;20029;-77
2022/04/11 12:54:49;;;;;;;8.27;3.80;;;17.50;38.80;;;;;;5031189;28;20040;-75
2022/04/11 12:57:26;;;;;;;8.45;4.32;;;17.50;38.90;;;;;;5030953;28;20021;-75
2022/04/11 12:59:53;;;;;;;7.38;3.88;;;17.40;38.30;;;;;;5030234;28;20038;-76